createdAt,value
2023-04-09T00:02:41.575Z,3.85
2023-04-09T00:05:44.819Z,3.86
2023-04-09T00:08:48.779Z,3.92
2023-04-09T00:11:52.739Z,3.90
2023-04-09T00:14:56.943Z,3.98
2023-04-09T00:18:00.412Z,3.97
2023-04-09T00:21:02.995Z,4.02
2023-04-09T00:24:06.102Z,4.00
2023-04-09T00:27:09.208Z,4.01
2023-04-09T00:30:12.179Z,4.02
2023-04-09T00:33:15.820Z,4.05
2023-04-09T00:36:19.402Z,4.04
2023-04-09T00:39:22.291Z,4.06
2023-04-09T00:42:26.636Z,4.09
2023-04-09T00:45:29.288Z,4.10
2023-04-09T00:48:32.117Z,4.11
2023-04-09T00:51:36.858Z,4.10
2023-04-09T00:54:40.147Z,4.10
2023-04-09T00:57:44.207Z,4.06
2023-04-09T01:00:47.465Z,4.10
2023-04-09T01:03:51.355Z,4.09
2023-04-09T01:07:20.293Z,4.08
2023-04-09T01:10:39.728Z,4.10
2023-04-09T01:13:55.017Z,4.04
2023-04-09T01:17:05.544Z,4.05
2023-04-09T01:20:13.537Z,4.05
2023-04-09T01:23:26.872Z,4.08
2023-04-09T01:26:45.756Z,4.10
2023-04-09T01:29:53.585Z,4.12
2023-04-09T01:32:58.081Z,4.06
2023-04-09T01:36:01.965Z,4.10
2023-04-09T01:39:07.309Z,4.12
2023-04-09T01:42:12.990Z,4.11
2023-04-09T01:45:18.236Z,4.12
2023-04-09T01:48:23.441Z,4.14
2023-04-09T01:51:27.431Z,4.18
2023-04-09T01:54:29.986Z,4.09
2023-04-09T01:57:33.158Z,4.20
2023-04-09T02:00:40.686Z,4.23
2023-04-09T02:03:57.071Z,4.21
2023-04-09T02:07:10.739Z,4.23
2023-04-09T02:10:17.405Z,4.24
2023-04-09T02:13:21.515Z,4.25
2023-04-09T02:16:27.463Z,4.19
2023-04-09T02:19:44.986Z,4.18
2023-04-09T02:22:49.072Z,4.22
2023-04-09T02:25:54.330Z,4.21
2023-04-09T02:28:57.148Z,4.26
2023-04-09T02:32:00.739Z,4.26
2023-04-09T02:35:03.723Z,4.26
2023-04-09T02:38:08.198Z,4.24
2023-04-09T02:41:14.252Z,4.22
2023-04-09T02:44:17.387Z,4.17
2023-04-09T02:47:20.844Z,4.14
2023-04-09T02:50:24.429Z,4.02
2023-04-09T02:53:27.728Z,3.95
2023-04-09T02:56:32.492Z,3.89
2023-04-09T02:59:35.953Z,3.77
2023-04-09T03:02:39.313Z,3.74
2023-04-09T03:05:42.208Z,3.67
2023-04-09T03:08:44.960Z,3.62
2023-04-09T03:11:47.633Z,3.57
2023-04-09T03:14:50.954Z,3.52
2023-04-09T03:17:53.968Z,3.47
2023-04-09T03:20:57.102Z,3.40
2023-04-09T03:24:02.506Z,3.34
2023-04-09T03:27:05.607Z,3.39
2023-04-09T03:30:08.998Z,3.38
2023-04-09T03:33:12.303Z,3.37
2023-04-09T03:36:19.172Z,3.39
2023-04-09T03:39:23.635Z,3.40
2023-04-09T03:42:28.993Z,3.42
2023-04-09T03:45:32.741Z,3.42
2023-04-09T03:48:37.378Z,3.44
2023-04-09T03:51:40.747Z,3.43
2023-04-09T03:54:43.768Z,3.37
2023-04-09T03:57:47.265Z,3.40
2023-04-09T04:00:50.553Z,3.26
2023-04-09T04:03:57.843Z,3.30
2023-04-09T04:07:04.345Z,3.32
2023-04-09T04:10:08.415Z,3.38
2023-04-09T04:13:15.576Z,3.42
2023-04-09T04:16:19.618Z,3.40
2023-04-09T04:19:22.904Z,3.47
2023-04-09T04:22:26.526Z,3.47
2023-04-09T04:25:30.756Z,3.49
2023-04-09T04:28:40.199Z,3.46
2023-04-09T04:31:44.367Z,3.52
2023-04-09T04:34:50.877Z,3.58
2023-04-09T04:37:55.937Z,3.66
2023-04-09T04:41:02.240Z,3.77
2023-04-09T04:44:13.944Z,3.82
2023-04-09T04:47:19.725Z,3.90
2023-04-09T04:50:23.037Z,3.96
2023-04-09T04:53:37.611Z,3.93
2023-04-09T04:56:44.768Z,4.01
2023-04-09T04:59:48.890Z,4.08
2023-04-09T05:02:53.202Z,4.09
2023-04-09T05:05:59.098Z,4.04
2023-04-09T05:09:04.225Z,4.07
2023-04-09T05:12:09.860Z,4.11
2023-04-09T05:15:23.252Z,4.19
2023-04-09T05:18:27.296Z,4.22
2023-04-09T05:21:32.306Z,4.26
2023-04-09T05:24:36.156Z,4.33
2023-04-09T05:27:48.589Z,4.40
2023-04-09T05:30:54.423Z,4.39
2023-04-09T05:34:01.046Z,4.50
2023-04-09T05:37:23.228Z,4.54
2023-04-09T05:40:35.572Z,4.62
2023-04-09T05:43:39.333Z,4.68
2023-04-09T05:46:42.456Z,4.73
2023-04-09T05:49:59.182Z,4.80
2023-04-09T05:53:13.162Z,4.85
2023-04-09T05:56:19.640Z,4.78
2023-04-09T05:59:23.696Z,4.86
2023-04-09T06:02:27.205Z,4.85
2023-04-09T06:05:31.232Z,4.94
2023-04-09T06:08:45.564Z,5.01
2023-04-09T06:11:52.436Z,5.07
2023-04-09T06:15:03.771Z,5.12
2023-04-09T06:18:08.467Z,5.17
2023-04-09T06:21:17.884Z,5.19
2023-04-09T06:24:28.727Z,5.29
2023-04-09T06:27:33.154Z,5.33
2023-04-09T06:30:38.898Z,5.38
2023-04-09T06:33:43.168Z,5.46
2023-04-09T06:36:48.522Z,5.52
2023-04-09T06:40:01.721Z,5.59
2023-04-09T06:43:07.356Z,5.53
2023-04-09T06:46:24.345Z,5.72
2023-04-09T06:49:28.225Z,5.74
2023-04-09T06:52:37.784Z,5.78
2023-04-09T06:55:47.294Z,5.76
2023-04-09T06:58:52.789Z,5.85
2023-04-09T07:01:56.009Z,5.77
2023-04-09T07:05:05.482Z,5.81
2023-04-09T07:08:16.335Z,5.72
2023-04-09T07:11:32.340Z,6.07
2023-04-09T07:14:36.730Z,6.12
2023-04-09T07:17:39.821Z,6.18
2023-04-09T07:20:58.338Z,6.46
2023-04-09T07:24:10.561Z,6.53
2023-04-09T07:27:21.435Z,6.90
2023-04-09T07:30:24.552Z,7.59
2023-04-09T07:33:37.324Z,8.31
2023-04-09T07:36:44.675Z,8.96
2023-04-09T07:39:51.325Z,9.79
2023-04-09T07:42:55.819Z,10.16
2023-04-09T07:46:10.581Z,10.48
2023-04-09T07:49:25.918Z,12.07
2023-04-09T07:52:34.772Z,12.38
2023-04-09T07:55:38.231Z,11.99
2023-04-09T07:58:53.808Z,12.19
2023-04-09T08:02:05.764Z,11.90
2023-04-09T08:05:19.417Z,11.58
2023-04-09T08:08:31.204Z,10.80
2023-04-09T08:11:36.259Z,10.54
2023-04-09T08:14:49.404Z,10.67
2023-04-09T08:17:55.113Z,10.55
2023-04-09T08:21:04.983Z,10.12
2023-04-09T08:24:16.294Z,10.18
2023-04-09T08:27:22.513Z,10.33
2023-04-09T08:30:37.775Z,9.86
2023-04-09T08:33:41.315Z,9.99
2023-04-09T08:36:50.139Z,9.60
2023-04-09T08:40:01.245Z,9.38
2023-04-09T08:43:21.183Z,9.12
2023-04-09T08:46:26.727Z,9.27
2023-04-09T08:49:30.247Z,8.98
2023-04-09T08:52:36.282Z,9.36
2023-04-09T08:55:42.585Z,9.32
2023-04-09T08:58:51.855Z,9.65
2023-04-09T09:02:14.632Z,9.48
2023-04-09T09:05:42.579Z,9.33
2023-04-09T09:09:08.343Z,9.26
2023-04-09T09:12:36.590Z,9.42
2023-04-09T09:15:51.193Z,9.67
2023-04-09T09:19:04.292Z,10.22
2023-04-09T09:22:12.688Z,10.39
2023-04-09T09:25:17.308Z,9.81
2023-04-09T09:28:26.495Z,9.82
2023-04-09T09:31:47.709Z,10.37
2023-04-09T09:34:59.839Z,9.89
2023-04-09T09:38:05.611Z,9.74
2023-04-09T09:41:21.478Z,10.05
2023-04-09T09:44:42.224Z,9.92
2023-04-09T09:47:51.430Z,10.23
2023-04-09T09:50:59.491Z,9.58
2023-04-09T09:54:07.344Z,9.40
2023-04-09T09:57:13.846Z,9.39
2023-04-09T10:00:26.534Z,9.44
2023-04-09T10:03:38.543Z,9.04
2023-04-09T10:06:46.302Z,9.00
2023-04-09T10:09:53.234Z,8.95
2023-04-09T10:13:04.185Z,9.10
2023-04-09T10:16:10.340Z,8.99
2023-04-09T10:19:20.371Z,8.93
2023-04-09T10:22:33.256Z,9.05
2023-04-09T10:25:36.133Z,9.34
2023-04-09T10:28:48.250Z,9.79
2023-04-09T10:32:14.408Z,10.07
2023-04-09T10:35:27.055Z,10.65
2023-04-09T10:38:39.273Z,11.74
2023-04-09T10:41:47.277Z,12.27
2023-04-09T10:45:10.199Z,10.63
2023-04-09T10:48:17.395Z,11.45
2023-04-09T10:51:41.156Z,10.78
2023-04-09T10:54:52.955Z,10.33
2023-04-09T10:57:56.306Z,9.87
2023-04-09T11:01:05.693Z,10.35
2023-04-09T11:04:23.053Z,10.70
2023-04-09T11:07:41.606Z,10.73
2023-04-09T11:10:49.766Z,10.24
2023-04-09T11:14:05.424Z,10.13
2023-04-09T11:17:22.384Z,10.28
2023-04-09T11:20:35.276Z,10.32
2023-04-09T11:23:42.281Z,9.77
2023-04-09T11:26:52.260Z,9.58
2023-04-09T11:29:59.322Z,9.51
2023-04-09T11:33:14.353Z,9.91
2023-04-09T11:36:18.094Z,9.70
2023-04-09T11:39:23.518Z,9.92
2023-04-09T11:42:35.747Z,9.97
2023-04-09T11:45:43.736Z,9.85
2023-04-09T11:48:55.180Z,10.00
2023-04-09T11:52:07.274Z,9.87
2023-04-09T11:55:36.193Z,9.73
2023-04-09T11:58:52.056Z,9.94
2023-04-09T12:02:07.342Z,9.85
2023-04-09T12:05:28.360Z,9.82
2023-04-09T12:08:35.329Z,9.84
2023-04-09T12:11:47.321Z,10.10
2023-04-09T12:14:56.561Z,10.26
2023-04-09T12:18:15.313Z,10.40
2023-04-09T12:21:28.276Z,10.45
2023-04-09T12:24:38.216Z,10.36
2023-04-09T12:27:41.498Z,10.33
2023-04-09T12:30:57.286Z,9.91
2023-04-09T12:34:00.992Z,9.71
2023-04-09T12:37:16.619Z,9.73
2023-04-09T12:40:27.526Z,10.04
2023-04-09T12:43:39.493Z,10.10
2023-04-09T12:46:50.412Z,10.13
2023-04-09T12:50:06.413Z,10.06
2023-04-09T12:53:12.827Z,10.32
2023-04-09T12:56:19.192Z,9.99
2023-04-09T12:59:22.691Z,10.11
2023-04-09T13:02:31.442Z,10.22
2023-04-09T13:05:43.195Z,10.72
2023-04-09T13:09:00.188Z,10.86
2023-04-09T13:12:03.233Z,10.82
2023-04-09T13:15:09.292Z,11.34
2023-04-09T13:18:26.292Z,11.61
2023-04-09T13:21:36.186Z,11.78
2023-04-09T13:24:40.927Z,11.84
2023-04-09T13:27:49.148Z,11.96
2023-04-09T13:31:00.365Z,11.92
2023-04-09T13:34:13.220Z,11.75
2023-04-09T13:37:17.651Z,11.77
2023-04-09T13:40:31.466Z,12.00
2023-04-09T13:43:45.185Z,12.18
2023-04-09T13:46:50.703Z,11.92
2023-04-09T13:49:55.300Z,11.65
2023-04-09T13:53:06.015Z,11.41
2023-04-09T13:56:21.400Z,11.41
2023-04-09T13:59:25.736Z,11.37
2023-04-09T14:02:35.806Z,11.35
2023-04-09T14:05:49.193Z,11.25
2023-04-09T14:09:05.659Z,11.05
2023-04-09T14:12:19.846Z,11.03
2023-04-09T14:15:27.103Z,11.05
2023-04-09T14:18:32.206Z,11.07
2023-04-09T14:21:46.288Z,11.17
2023-04-09T14:24:51.229Z,11.07
2023-04-09T14:27:56.246Z,11.11
2023-04-09T14:31:02.504Z,11.04
2023-04-09T14:34:09.480Z,10.98
2023-04-09T14:37:13.592Z,10.73
2023-04-09T14:40:19.296Z,10.77
2023-04-09T14:43:39.180Z,11.09
2023-04-09T14:46:44.582Z,11.38
2023-04-09T14:49:58.891Z,11.42
2023-04-09T14:53:13.375Z,11.15
2023-04-09T14:56:18.258Z,10.99
2023-04-09T14:59:26.355Z,10.85
2023-04-09T15:02:32.476Z,10.72
2023-04-09T15:05:52.330Z,10.64
2023-04-09T15:09:12.388Z,10.52
2023-04-09T15:12:25.189Z,10.41
2023-04-09T15:15:37.290Z,10.45
2023-04-09T15:18:41.196Z,10.54
2023-04-09T15:21:51.222Z,10.61
2023-04-09T15:25:04.125Z,10.74
2023-04-09T15:28:08.184Z,10.77
2023-04-09T15:31:14.176Z,10.78
2023-04-09T15:34:28.574Z,10.67
2023-04-09T15:37:33.205Z,10.56
2023-04-09T15:40:44.283Z,10.50
2023-04-09T15:43:53.980Z,10.45
2023-04-09T15:47:00.221Z,10.42
2023-04-09T15:50:16.240Z,10.41
2023-04-09T15:53:38.296Z,10.54
2023-04-09T15:56:42.992Z,10.65
2023-04-09T15:59:48.530Z,10.66
2023-04-09T16:02:55.300Z,10.65
2023-04-09T16:06:07.952Z,10.65
2023-04-09T16:09:16.743Z,10.71
2023-04-09T16:12:25.723Z,10.74
2023-04-09T16:15:51.332Z,10.72
2023-04-09T16:19:10.602Z,10.74
2023-04-09T16:22:18.480Z,10.75
2023-04-09T16:25:22.199Z,10.71
2023-04-09T16:28:33.547Z,10.60
2023-04-09T16:31:48.427Z,10.63
2023-04-09T16:35:07.124Z,10.62
2023-04-09T16:38:15.646Z,10.61
2023-04-09T16:41:20.874Z,10.56
2023-04-09T16:44:26.841Z,10.53
2023-04-09T16:47:32.490Z,10.45
2023-04-09T16:50:45.496Z,10.39
2023-04-09T16:53:48.910Z,10.26
2023-04-09T16:56:54.250Z,10.10
2023-04-09T17:00:00.002Z,10.00
2023-04-09T17:03:16.688Z,9.87
2023-04-09T17:06:20.119Z,9.72
2023-04-09T17:09:25.261Z,9.63
2023-04-09T17:12:40.260Z,9.52
2023-04-09T17:15:45.394Z,9.43
2023-04-09T17:18:57.538Z,9.37
2023-04-09T17:22:14.235Z,9.31
2023-04-09T17:25:27.193Z,9.24
2023-04-09T17:28:31.347Z,9.19
2023-04-09T17:31:41.887Z,9.17
2023-04-09T17:34:49.585Z,9.12
2023-04-09T17:37:54.730Z,9.19
2023-04-09T17:40:59.459Z,9.17
2023-04-09T17:44:12.183Z,9.12
2023-04-09T17:47:21.291Z,9.16
2023-04-09T17:50:26.261Z,9.13
2023-04-09T17:53:30.512Z,9.09
2023-04-09T17:56:39.103Z,9.00
2023-04-09T17:59:55.848Z,8.92
2023-04-09T18:03:08.562Z,8.77
2023-04-09T18:06:23.669Z,8.60
2023-04-09T18:09:47.122Z,8.44
2023-04-09T18:13:08.133Z,8.29
2023-04-09T18:16:13.425Z,8.13
2023-04-09T18:19:17.173Z,7.97
2023-04-09T18:22:29.577Z,7.85
2023-04-09T18:25:37.791Z,7.73
2023-04-09T18:28:42.662Z,7.63
2023-04-09T18:31:50.830Z,7.51
2023-04-09T18:35:03.723Z,7.42
2023-04-09T18:38:08.041Z,7.26
2023-04-09T18:41:20.194Z,7.23
2023-04-09T18:44:26.530Z,7.17
2023-04-09T18:47:29.351Z,7.11
2023-04-09T18:50:43.123Z,7.01
2023-04-09T18:53:59.167Z,6.95
2023-04-09T18:57:17.232Z,6.89
2023-04-09T19:00:35.255Z,6.81
2023-04-09T19:03:46.260Z,6.74
2023-04-09T19:06:52.680Z,6.68
2023-04-09T19:10:01.532Z,6.59
2023-04-09T19:13:11.290Z,6.52
2023-04-09T19:16:24.335Z,6.43
2023-04-09T19:19:37.301Z,6.29
2023-04-09T19:22:50.752Z,6.29
2023-04-09T19:25:58.312Z,6.23
2023-04-09T19:29:06.298Z,6.18
2023-04-09T19:32:15.259Z,6.13
2023-04-09T19:35:21.579Z,6.10
2023-04-09T19:38:33.458Z,6.05
2023-04-09T19:41:41.252Z,5.97
2023-04-09T19:44:49.835Z,5.84
2023-04-09T19:47:55.600Z,5.84
2023-04-09T19:51:14.108Z,5.77
2023-04-09T19:54:22.385Z,5.72
2023-04-09T19:57:26.537Z,5.66
2023-04-09T20:00:41.195Z,5.63
2023-04-09T20:03:59.753Z,5.53
2023-04-09T20:07:04.477Z,5.48
2023-04-09T20:10:17.189Z,5.43
2023-04-09T20:13:26.280Z,5.34
2023-04-09T20:16:31.462Z,5.27
2023-04-09T20:19:37.967Z,5.19
2023-04-09T20:22:43.297Z,5.17
2023-04-09T20:25:54.214Z,5.16
2023-04-09T20:29:00.530Z,5.14
2023-04-09T20:32:12.416Z,5.14
2023-04-09T20:35:20.535Z,5.10
2023-04-09T20:38:24.895Z,5.03
2023-04-09T20:41:31.422Z,4.90
2023-04-09T20:44:41.777Z,4.89
2023-04-09T20:47:57.180Z,4.86
2023-04-09T20:51:02.886Z,4.81
2023-04-09T20:54:07.900Z,4.76
2023-04-09T20:57:13.733Z,4.73
2023-04-09T21:00:24.165Z,4.71
2023-04-09T21:03:27.979Z,4.70
2023-04-09T21:06:34.693Z,4.65
2023-04-09T21:09:45.049Z,4.60
2023-04-09T21:12:50.708Z,4.56
2023-04-09T21:15:53.737Z,4.49
2023-04-09T21:18:58.585Z,4.43
2023-04-09T21:22:03.319Z,4.35
2023-04-09T21:25:07.347Z,4.20
2023-04-09T21:28:12.208Z,4.22
2023-04-09T21:31:22.647Z,4.12
2023-04-09T21:34:27.786Z,4.11
2023-04-09T21:37:33.792Z,4.11
2023-04-09T21:40:42.288Z,4.17
2023-04-09T21:43:48.260Z,4.18
2023-04-09T21:46:57.444Z,4.14
2023-04-09T21:50:00.996Z,4.07
2023-04-09T21:53:05.243Z,4.00
2023-04-09T21:56:08.469Z,3.95
2023-04-09T21:59:11.956Z,3.93
2023-04-09T22:02:22.960Z,3.86
2023-04-09T22:05:32.851Z,3.84
2023-04-09T22:08:55.482Z,3.71
2023-04-09T22:12:06.123Z,3.71
2023-04-09T22:15:11.193Z,3.69
2023-04-09T22:18:15.848Z,3.66
2023-04-09T22:21:19.385Z,3.65
2023-04-09T22:24:30.375Z,3.65
2023-04-09T22:27:35.396Z,3.60
2023-04-09T22:30:40.985Z,3.55
2023-04-09T22:33:46.973Z,3.54
2023-04-09T22:36:51.680Z,3.55
2023-04-09T22:39:54.653Z,3.54
2023-04-09T22:42:58.002Z,3.51
2023-04-09T22:46:02.172Z,3.52
2023-04-09T22:49:06.583Z,3.43
2023-04-09T22:52:12.320Z,3.34
2023-04-09T22:55:16.662Z,3.25
2023-04-09T22:58:19.425Z,3.23
2023-04-09T23:01:23.543Z,3.18
2023-04-09T23:04:26.786Z,3.17
2023-04-09T23:07:29.740Z,3.14
2023-04-09T23:10:34.250Z,3.10
2023-04-09T23:13:39.536Z,3.10
2023-04-09T23:16:42.905Z,3.09
2023-04-09T23:19:45.946Z,3.05
2023-04-09T23:22:50.496Z,3.04
2023-04-09T23:25:55.372Z,3.02
2023-04-09T23:28:58.292Z,3.00
2023-04-09T23:32:03.096Z,2.97
2023-04-09T23:35:06.691Z,2.95
2023-04-09T23:38:09.760Z,2.91
2023-04-09T23:41:16.503Z,2.87
2023-04-09T23:44:20.914Z,2.81
2023-04-09T23:47:24.233Z,2.83
2023-04-09T23:50:29.019Z,2.80
2023-04-09T23:53:32.658Z,2.78
2023-04-09T23:56:36.272Z,2.77
2023-04-09T23:59:39.364Z,2.77
